University Oxford Airport
KUOX : now visible

Airfield :











YOU CAN JOIN US ON...

 
LOGIN :

Register | Disclaimer

   EN    FR    IT 

 









Legend :    VFR   Marginal VFR   IFR   Intensive IFR   Very Intensive IFR
Visi :
Ceiling :
>= 8 km
>= 3000ft
5 to 8 km
1000 to 3000 ft
1500m to 5 km
500 to 1000 ft
800 to 1500m
200 to 500 ft
< 800m
< 200 ft
Symbols :   Thunderstorms  Fog  Heavy snow  Heavy precipitations  Wind > 20 kt






- Airport Elevation : 452 ft


KUOX - University Oxford

CURRENT METAR :
  • 190755Z AUTO VRB03KT 10SM SCT017 BKN055 OVC070 20/20 A3005 RMK AO2 PWINO

EXPIRED METARs :
  • 190735Z AUTO 12004KT 10SM SCT005 BKN018 OVC070 20/20 A3006 RMK AO2 PWINO
  • 190715Z AUTO 12004KT 10SM BKN005 OVC017 20/20 A3006 RMK AO2 PWINO
  • 190655Z AUTO 13004KT 10SM BKN005 OVC015 20/20 A3005 RMK AO2 PWINO
  • 190635Z AUTO 00000KT 10SM BKN005 OVC013 20/20 A3005 RMK AO2 PWINO
  • 190615Z AUTO 00000KT 10SM SCT005 BKN013 BKN070 20/20 A3005 RMK AO2 PWINO
  • 190555Z AUTO 00000KT 10SM BKN005 BKN055 20/20 A3004 RMK AO2 PWINO
  • 190535Z AUTO VRB03KT 10SM FEW005 FEW014 FEW055 20/20 A3005 RMK AO2 PWINO
  • 190515Z AUTO 07004KT 10SM BKN015 20/20 A3005 RMK AO2 PWINO
  • 190455Z AUTO 05004KT 10SM BKN017 20/20 A3006 RMK AO2 PWINO

TAF N/A
KZME FIR / North America



MET'MAP, your aeronautical weather chart ! - Copyright ORBIFLY December 2007 - Disclaimer

ORBIFLY MET'MAP TEAM :

Programming & Development : Alexandra Zaïnal
Concept & original design : Baudouin d'Aumeries
Assistance for programming : Marc-Olivier Méhu
Technical & hardware support : Manuel Goepfert

Contact : metmap@orbifly.com




SOURCES & CREDITS :

   NOAA       Earth
Advisory